sensor_id;sensor_type;location;lat;lon;timestamp;temperature;humidity
20815;DHT22;10568;48.176;16.316;2022-09-20T00:00:46;10.60;99.90
20815;DHT22;10568;48.176;16.316;2022-09-20T00:03:13;10.60;99.90
20815;DHT22;10568;48.176;16.316;2022-09-20T00:05:42;10.60;99.90
20815;DHT22;10568;48.176;16.316;2022-09-20T00:08:11;10.60;99.90
20815;DHT22;10568;48.176;16.316;2022-09-20T00:10:37;10.60;99.90
20815;DHT22;10568;48.176;16.316;2022-09-20T00:13:08;10.60;99.90
20815;DHT22;10568;48.176;16.316;2022-09-20T00:15:40;10.50;99.90
20815;DHT22;10568;48.176;16.316;2022-09-20T00:18:05;10.60;99.90
20815;DHT22;10568;48.176;16.316;2022-09-20T00:20:31;10.50;99.90
20815;DHT22;10568;48.176;16.316;2022-09-20T00:22:57;10.60;99.90
20815;DHT22;10568;48.176;16.316;2022-09-20T00:25:22;10.50;99.90
20815;DHT22;10568;48.176;16.316;2022-09-20T00:27:48;10.50;99.90
20815;DHT22;10568;48.176;16.316;2022-09-20T00:30:14;10.50;99.90
20815;DHT22;10568;48.176;16.316;2022-09-20T00:32:40;10.40;99.90
20815;DHT22;10568;48.176;16.316;2022-09-20T00:35:06;10.50;99.90
20815;DHT22;10568;48.176;16.316;2022-09-20T00:37:37;10.50;99.90
20815;DHT22;10568;48.176;16.316;2022-09-20T00:40:13;10.50;99.90
20815;DHT22;10568;48.176;16.316;2022-09-20T00:42:40;10.50;99.90
20815;DHT22;10568;48.176;16.316;2022-09-20T00:45:23;10.40;99.90
20815;DHT22;10568;48.176;16.316;2022-09-20T00:47:59;10.40;99.90
20815;DHT22;10568;48.176;16.316;2022-09-20T00:50:32;10.40;99.90
20815;DHT22;10568;48.176;16.316;2022-09-20T00:53:06;10.30;99.90
20815;DHT22;10568;48.176;16.316;2022-09-20T00:55:35;10.30;99.90
20815;DHT22;10568;48.176;16.316;2022-09-20T00:58:03;10.30;99.90
20815;DHT22;10568;48.176;16.316;2022-09-20T01:00:30;10.30;99.90
20815;DHT22;10568;48.176;16.316;2022-09-20T01:02:58;10.30;99.90
20815;DHT22;10568;48.176;16.316;2022-09-20T01:05:25;10.30;99.90
20815;DHT22;10568;48.176;16.316;2022-09-20T01:07:53;10.20;99.90
20815;DHT22;10568;48.176;16.316;2022-09-20T01:10:19;10.20;99.90
20815;DHT22;10568;48.176;16.316;2022-09-20T01:12:45;10.20;99.90
20815;DHT22;10568;48.176;16.316;2022-09-20T01:15:12;10.10;99.90
20815;DHT22;10568;48.176;16.316;2022-09-20T01:17:43;10.20;99.90
20815;DHT22;10568;48.176;16.316;2022-09-20T01:28:09;10.20;99.90
20815;DHT22;10568;48.176;16.316;2022-09-20T01:36:05;10.10;99.90
20815;DHT22;10568;48.176;16.316;2022-09-20T01:42:07;10.10;99.90
20815;DHT22;10568;48.176;16.316;2022-09-20T01:47:43;10.10;99.90
20815;DHT22;10568;48.176;16.316;2022-09-20T01:50:29;10.10;99.90
20815;DHT22;10568;48.176;16.316;2022-09-20T02:07:47;10.10;99.90
20815;DHT22;10568;48.176;16.316;2022-09-20T02:12:55;10.10;99.90
20815;DHT22;10568;48.176;16.316;2022-09-20T02:16:40;10.10;99.90
20815;DHT22;10568;48.176;16.316;2022-09-20T02:23:55;10.00;99.90
20815;DHT22;10568;48.176;16.316;2022-09-20T02:26:43;10.00;99.90
20815;DHT22;10568;48.176;16.316;2022-09-20T02:30:20;9.90;99.90
20815;DHT22;10568;48.176;16.316;2022-09-20T02:49:50;9.80;99.90
20815;DHT22;10568;48.176;16.316;2022-09-20T02:52:42;9.90;99.90
20815;DHT22;10568;48.176;16.316;2022-09-20T03:01:08;9.80;99.90
20815;DHT22;10568;48.176;16.316;2022-09-20T03:07:10;9.80;99.90
20815;DHT22;10568;48.176;16.316;2022-09-20T03:10:04;9.80;99.90
20815;DHT22;10568;48.176;16.316;2022-09-20T03:18:59;9.80;99.90
20815;DHT22;10568;48.176;16.316;2022-09-20T03:26:55;9.80;99.90
20815;DHT22;10568;48.176;16.316;2022-09-20T03:29:41;9.90;99.90
20815;DHT22;10568;48.176;16.316;2022-09-20T03:35:42;9.90;99.90
20815;DHT22;10568;48.176;16.316;2022-09-20T03:38:38;9.80;99.90
20815;DHT22;10568;48.176;16.316;2022-09-20T03:46:59;9.70;99.90
20815;DHT22;10568;48.176;16.316;2022-09-20T03:58:05;9.70;99.90
20815;DHT22;10568;48.176;16.316;2022-09-20T04:03:52;9.60;99.90
20815;DHT22;10568;48.176;16.316;2022-09-20T04:12:27;9.70;99.90
20815;DHT22;10568;48.176;16.316;2022-09-20T04:20:42;9.70;99.90
20815;DHT22;10568;48.176;16.316;2022-09-20T04:26:09;9.70;99.90
20815;DHT22;10568;48.176;16.316;2022-09-20T04:28:42;9.70;99.90
20815;DHT22;10568;48.176;16.316;2022-09-20T04:31:26;9.70;99.90
20815;DHT22;10568;48.176;16.316;2022-09-20T04:33:54;9.70;99.90
20815;DHT22;10568;48.176;16.316;2022-09-20T04:58:54;9.70;99.90
20815;DHT22;10568;48.176;16.316;2022-09-20T05:08:05;9.80;99.90
20815;DHT22;10568;48.176;16.316;2022-09-20T05:31:10;10.10;99.90
20815;DHT22;10568;48.176;16.316;2022-09-20T05:34:03;10.20;99.90
20815;DHT22;10568;48.176;16.316;2022-09-20T05:44:54;10.40;99.90
20815;DHT22;10568;48.176;16.316;2022-09-20T05:48:01;10.40;99.90
20815;DHT22;10568;48.176;16.316;2022-09-20T06:02:13;10.50;99.90
20815;DHT22;10568;48.176;16.316;2022-09-20T06:04:57;10.50;99.90
20815;DHT22;10568;48.176;16.316;2022-09-20T06:07:49;10.50;99.90
20815;DHT22;10568;48.176;16.316;2022-09-20T06:10:37;10.40;99.90
20815;DHT22;10568;48.176;16.316;2022-09-20T06:16:06;10.50;99.90
20815;DHT22;10568;48.176;16.316;2022-09-20T06:19:00;10.50;99.90
20815;DHT22;10568;48.176;16.316;2022-09-20T06:21:41;10.50;99.90
20815;DHT22;10568;48.176;16.316;2022-09-20T06:27:18;10.50;99.90
20815;DHT22;10568;48.176;16.316;2022-09-20T06:29:55;10.60;99.90
20815;DHT22;10568;48.176;16.316;2022-09-20T06:32:23;10.70;99.90
20815;DHT22;10568;48.176;16.316;2022-09-20T06:34:48;10.80;99.90
20815;DHT22;10568;48.176;16.316;2022-09-20T06:40:39;10.90;99.90
20815;DHT22;10568;48.176;16.316;2022-09-20T06:43:26;11.00;99.90
20815;DHT22;10568;48.176;16.316;2022-09-20T06:45:52;11.20;99.90
20815;DHT22;10568;48.176;16.316;2022-09-20T06:48:17;11.20;99.90
20815;DHT22;10568;48.176;16.316;2022-09-20T06:50:44;11.30;99.90
20815;DHT22;10568;48.176;16.316;2022-09-20T06:53:27;11.40;99.90
20815;DHT22;10568;48.176;16.316;2022-09-20T06:55:53;11.50;99.90
20815;DHT22;10568;48.176;16.316;2022-09-20T06:58:19;11.60;99.90
20815;DHT22;10568;48.176;16.316;2022-09-20T07:00:45;11.60;99.90
20815;DHT22;10568;48.176;16.316;2022-09-20T07:03:11;11.60;99.90
20815;DHT22;10568;48.176;16.316;2022-09-20T07:05:38;11.60;99.90
20815;DHT22;10568;48.176;16.316;2022-09-20T07:08:04;11.70;99.90
20815;DHT22;10568;48.176;16.316;2022-09-20T07:10:30;11.80;99.90
20815;DHT22;10568;48.176;16.316;2022-09-20T07:13:00;11.90;99.90
20815;DHT22;10568;48.176;16.316;2022-09-20T07:15:31;11.90;99.90
20815;DHT22;10568;48.176;16.316;2022-09-20T07:17:57;12.00;99.90
20815;DHT22;10568;48.176;16.316;2022-09-20T07:20:23;12.00;99.90
20815;DHT22;10568;48.176;16.316;2022-09-20T07:22:49;11.80;99.90
20815;DHT22;10568;48.176;16.316;2022-09-20T07:25:15;11.80;99.90
20815;DHT22;10568;48.176;16.316;2022-09-20T07:27:43;11.80;99.90
20815;DHT22;10568;48.176;16.316;2022-09-20T07:30:11;11.90;99.90
20815;DHT22;10568;48.176;16.316;2022-09-20T07:32:37;11.90;99.90
20815;DHT22;10568;48.176;16.316;2022-09-20T07:35:07;12.00;99.90
20815;DHT22;10568;48.176;16.316;2022-09-20T07:37:33;12.00;99.90
20815;DHT22;10568;48.176;16.316;2022-09-20T07:39:58;12.00;99.90
20815;DHT22;10568;48.176;16.316;2022-09-20T07:42:24;12.10;99.90
20815;DHT22;10568;48.176;16.316;2022-09-20T07:44:49;12.10;99.90
20815;DHT22;10568;48.176;16.316;2022-09-20T07:47:16;12.10;99.90
20815;DHT22;10568;48.176;16.316;2022-09-20T07:49:42;12.10;99.90
20815;DHT22;10568;48.176;16.316;2022-09-20T07:52:26;12.20;99.90
20815;DHT22;10568;48.176;16.316;2022-09-20T07:54:52;12.10;99.90
20815;DHT22;10568;48.176;16.316;2022-09-20T07:57:18;12.20;99.90
20815;DHT22;10568;48.176;16.316;2022-09-20T07:59:43;12.20;99.90
20815;DHT22;10568;48.176;16.316;2022-09-20T08:02:13;12.30;99.90
20815;DHT22;10568;48.176;16.316;2022-09-20T08:04:39;12.30;99.90
20815;DHT22;10568;48.176;16.316;2022-09-20T08:07:05;12.40;99.90
20815;DHT22;10568;48.176;16.316;2022-09-20T08:09:31;12.30;99.90
20815;DHT22;10568;48.176;16.316;2022-09-20T08:11:56;12.30;99.90
20815;DHT22;10568;48.176;16.316;2022-09-20T08:14:22;12.40;99.90
20815;DHT22;10568;48.176;16.316;2022-09-20T08:16:49;12.50;99.90
20815;DHT22;10568;48.176;16.316;2022-09-20T08:19:22;12.60;99.90
20815;DHT22;10568;48.176;16.316;2022-09-20T08:21:49;12.60;99.90
20815;DHT22;10568;48.176;16.316;2022-09-20T08:24:16;12.70;99.90
20815;DHT22;10568;48.176;16.316;2022-09-20T08:26:42;12.80;99.90
20815;DHT22;10568;48.176;16.316;2022-09-20T08:29:08;13.20;99.90
20815;DHT22;10568;48.176;16.316;2022-09-20T08:31:37;13.50;99.90
20815;DHT22;10568;48.176;16.316;2022-09-20T08:37:25;13.40;99.90
20815;DHT22;10568;48.176;16.316;2022-09-20T08:39:51;13.50;99.90
20815;DHT22;10568;48.176;16.316;2022-09-20T08:42:31;13.40;99.90
20815;DHT22;10568;48.176;16.316;2022-09-20T08:45:09;13.50;99.90
20815;DHT22;10568;48.176;16.316;2022-09-20T08:47:43;13.60;99.90
20815;DHT22;10568;48.176;16.316;2022-09-20T08:50:12;13.70;99.90
20815;DHT22;10568;48.176;16.316;2022-09-20T08:56:02;13.60;99.90
20815;DHT22;10568;48.176;16.316;2022-09-20T08:58:29;13.50;99.90
20815;DHT22;10568;48.176;16.316;2022-09-20T09:00:55;13.50;99.90
20815;DHT22;10568;48.176;16.316;2022-09-20T09:03:23;13.40;99.90
20815;DHT22;10568;48.176;16.316;2022-09-20T09:05:53;13.40;99.90
20815;DHT22;10568;48.176;16.316;2022-09-20T09:08:22;13.30;99.90
20815;DHT22;10568;48.176;16.316;2022-09-20T09:10:56;13.20;99.90
20815;DHT22;10568;48.176;16.316;2022-09-20T09:13:46;13.00;99.90
20815;DHT22;10568;48.176;16.316;2022-09-20T09:16:15;12.70;99.90
20815;DHT22;10568;48.176;16.316;2022-09-20T09:18:44;12.60;99.90
20815;DHT22;10568;48.176;16.316;2022-09-20T09:21:22;12.40;99.90
20815;DHT22;10568;48.176;16.316;2022-09-20T09:23:55;12.30;99.90
20815;DHT22;10568;48.176;16.316;2022-09-20T09:26:26;12.30;99.90
20815;DHT22;10568;48.176;16.316;2022-09-20T09:29:15;12.30;99.90
20815;DHT22;10568;48.176;16.316;2022-09-20T09:31:42;12.20;99.90
20815;DHT22;10568;48.176;16.316;2022-09-20T09:34:30;12.20;99.90
20815;DHT22;10568;48.176;16.316;2022-09-20T09:36:56;12.30;99.90
20815;DHT22;10568;48.176;16.316;2022-09-20T09:39:27;12.40;99.90
20815;DHT22;10568;48.176;16.316;2022-09-20T09:41:54;12.50;99.90
20815;DHT22;10568;48.176;16.316;2022-09-20T09:44:23;13.10;99.90
20815;DHT22;10568;48.176;16.316;2022-09-20T09:46:49;13.70;99.90
20815;DHT22;10568;48.176;16.316;2022-09-20T09:52:12;14.50;99.90
20815;DHT22;10568;48.176;16.316;2022-09-20T09:54:42;15.00;99.90
20815;DHT22;10568;48.176;16.316;2022-09-20T10:00:11;14.70;99.90
20815;DHT22;10568;48.176;16.316;2022-09-20T10:27:43;15.80;99.90
20815;DHT22;10568;48.176;16.316;2022-09-20T10:30:17;15.50;99.90
20815;DHT22;10568;48.176;16.316;2022-09-20T10:38:17;16.70;99.90
20815;DHT22;10568;48.176;16.316;2022-09-20T10:44:09;15.80;99.90
20815;DHT22;10568;48.176;16.316;2022-09-20T11:00:24;13.60;99.90
20815;DHT22;10568;48.176;16.316;2022-09-20T11:08:52;13.40;99.90
20815;DHT22;10568;48.176;16.316;2022-09-20T11:11:25;13.20;99.90
20815;DHT22;10568;48.176;16.316;2022-09-20T11:16:44;13.00;99.90
20815;DHT22;10568;48.176;16.316;2022-09-20T11:22:28;14.20;99.90
20815;DHT22;10568;48.176;16.316;2022-09-20T11:25:35;15.10;99.90
20815;DHT22;10568;48.176;16.316;2022-09-20T11:34:31;16.80;99.90
20815;DHT22;10568;48.176;16.316;2022-09-20T11:36:55;16.90;99.90
20815;DHT22;10568;48.176;16.316;2022-09-20T11:42:27;15.20;99.90
20815;DHT22;10568;48.176;16.316;2022-09-20T11:44:54;14.90;99.90
20815;DHT22;10568;48.176;16.316;2022-09-20T11:47:34;14.50;99.90
20815;DHT22;10568;48.176;16.316;2022-09-20T11:55:46;13.60;99.90
20815;DHT22;10568;48.176;16.316;2022-09-20T11:58:14;13.30;99.90
20815;DHT22;10568;48.176;16.316;2022-09-20T12:00:44;13.10;99.90
20815;DHT22;10568;48.176;16.316;2022-09-20T12:05:45;13.40;99.90
20815;DHT22;10568;48.176;16.316;2022-09-20T12:08:23;13.60;99.90
20815;DHT22;10568;48.176;16.316;2022-09-20T12:11:02;13.60;99.90
20815;DHT22;10568;48.176;16.316;2022-09-20T12:13:31;13.40;99.90
20815;DHT22;10568;48.176;16.316;2022-09-20T12:16:07;13.10;99.90
20815;DHT22;10568;48.176;16.316;2022-09-20T12:28:49;13.20;99.90
20815;DHT22;10568;48.176;16.316;2022-09-20T12:39:34;13.70;99.90
20815;DHT22;10568;48.176;16.316;2022-09-20T12:42:03;13.70;99.90
20815;DHT22;10568;48.176;16.316;2022-09-20T12:45:25;13.60;99.90
20815;DHT22;10568;48.176;16.316;2022-09-20T12:47:36;13.40;99.90
20815;DHT22;10568;48.176;16.316;2022-09-20T12:50:09;13.30;99.90
20815;DHT22;10568;48.176;16.316;2022-09-20T12:52:56;13.20;99.90
20815;DHT22;10568;48.176;16.316;2022-09-20T13:01:26;12.60;99.90
20815;DHT22;10568;48.176;16.316;2022-09-20T13:03:38;12.50;99.90
20815;DHT22;10568;48.176;16.316;2022-09-20T13:08:34;12.40;99.90
20815;DHT22;10568;48.176;16.316;2022-09-20T13:11:09;12.30;99.90
20815;DHT22;10568;48.176;16.316;2022-09-20T13:14:00;12.30;99.90
20815;DHT22;10568;48.176;16.316;2022-09-20T13:21:46;12.10;99.90
20815;DHT22;10568;48.176;16.316;2022-09-20T13:24:17;12.10;99.90
20815;DHT22;10568;48.176;16.316;2022-09-20T13:26:46;12.00;99.90
20815;DHT22;10568;48.176;16.316;2022-09-20T13:29:39;12.00;99.90
20815;DHT22;10568;48.176;16.316;2022-09-20T13:34:44;11.90;99.90
20815;DHT22;10568;48.176;16.316;2022-09-20T13:37:19;11.80;99.90
20815;DHT22;10568;48.176;16.316;2022-09-20T13:39:53;11.80;99.90
20815;DHT22;10568;48.176;16.316;2022-09-20T13:42:19;11.70;99.90
20815;DHT22;10568;48.176;16.316;2022-09-20T13:44:47;11.70;99.90
20815;DHT22;10568;48.176;16.316;2022-09-20T13:47:28;11.70;99.90
20815;DHT22;10568;48.176;16.316;2022-09-20T13:52:51;11.70;99.90
20815;DHT22;10568;48.176;16.316;2022-09-20T13:55:21;11.70;99.90
20815;DHT22;10568;48.176;16.316;2022-09-20T13:57:51;11.90;99.90
20815;DHT22;10568;48.176;16.316;2022-09-20T14:00:17;12.10;99.90
20815;DHT22;10568;48.176;16.316;2022-09-20T14:02:43;12.40;99.90
20815;DHT22;10568;48.176;16.316;2022-09-20T14:05:17;12.70;99.90
20815;DHT22;10568;48.176;16.316;2022-09-20T14:07:45;12.70;99.90
20815;DHT22;10568;48.176;16.316;2022-09-20T14:10:33;12.70;99.90
20815;DHT22;10568;48.176;16.316;2022-09-20T14:13:04;12.70;99.90
20815;DHT22;10568;48.176;16.316;2022-09-20T14:15:40;12.70;99.90
20815;DHT22;10568;48.176;16.316;2022-09-20T14:18:11;12.80;99.90
20815;DHT22;10568;48.176;16.316;2022-09-20T14:20:40;12.80;99.90
20815;DHT22;10568;48.176;16.316;2022-09-20T14:23:23;13.00;99.90
20815;DHT22;10568;48.176;16.316;2022-09-20T14:28:40;13.40;99.90
20815;DHT22;10568;48.176;16.316;2022-09-20T14:31:14;13.50;99.90
20815;DHT22;10568;48.176;16.316;2022-09-20T14:33:43;13.40;99.90
20815;DHT22;10568;48.176;16.316;2022-09-20T14:36:29;13.60;99.90
20815;DHT22;10568;48.176;16.316;2022-09-20T14:39:02;13.70;99.90
20815;DHT22;10568;48.176;16.316;2022-09-20T14:41:39;13.70;99.90
20815;DHT22;10568;48.176;16.316;2022-09-20T14:44:20;13.80;99.90
20815;DHT22;10568;48.176;16.316;2022-09-20T14:46:47;13.50;99.90
20815;DHT22;10568;48.176;16.316;2022-09-20T14:51:46;13.20;99.90
20815;DHT22;10568;48.176;16.316;2022-09-20T14:56:47;12.80;99.90
20815;DHT22;10568;48.176;16.316;2022-09-20T15:02:01;12.50;99.90
20815;DHT22;10568;48.176;16.316;2022-09-20T15:04:30;12.50;99.90
20815;DHT22;10568;48.176;16.316;2022-09-20T15:07:01;12.30;99.90
20815;DHT22;10568;48.176;16.316;2022-09-20T15:09:28;12.20;99.90
20815;DHT22;10568;48.176;16.316;2022-09-20T15:12:16;12.10;99.90
20815;DHT22;10568;48.176;16.316;2022-09-20T15:14:42;11.90;99.90
20815;DHT22;10568;48.176;16.316;2022-09-20T15:17:14;11.70;99.90
20815;DHT22;10568;48.176;16.316;2022-09-20T15:19:40;11.60;99.90
20815;DHT22;10568;48.176;16.316;2022-09-20T15:22:08;11.60;99.90
20815;DHT22;10568;48.176;16.316;2022-09-20T15:24:34;11.50;99.90
20815;DHT22;10568;48.176;16.316;2022-09-20T15:27:00;11.50;99.90
20815;DHT22;10568;48.176;16.316;2022-09-20T15:29:26;11.30;99.90
20815;DHT22;10568;48.176;16.316;2022-09-20T15:31:51;11.30;99.90
20815;DHT22;10568;48.176;16.316;2022-09-20T15:34:17;11.20;99.90
20815;DHT22;10568;48.176;16.316;2022-09-20T15:36:44;11.10;99.90
20815;DHT22;10568;48.176;16.316;2022-09-20T15:39:10;11.00;99.90
20815;DHT22;10568;48.176;16.316;2022-09-20T15:41:36;10.90;99.90
20815;DHT22;10568;48.176;16.316;2022-09-20T15:44:06;10.80;99.90
20815;DHT22;10568;48.176;16.316;2022-09-20T15:46:32;10.80;99.90
20815;DHT22;10568;48.176;16.316;2022-09-20T15:48:59;10.80;99.90
20815;DHT22;10568;48.176;16.316;2022-09-20T15:51:27;10.80;99.90
20815;DHT22;10568;48.176;16.316;2022-09-20T15:53:55;10.70;99.90
20815;DHT22;10568;48.176;16.316;2022-09-20T15:56:24;10.60;99.90
20815;DHT22;10568;48.176;16.316;2022-09-20T15:58:57;10.60;99.90
20815;DHT22;10568;48.176;16.316;2022-09-20T16:01:38;10.60;99.90
20815;DHT22;10568;48.176;16.316;2022-09-20T16:04:12;10.50;99.90
20815;DHT22;10568;48.176;16.316;2022-09-20T16:06:39;10.50;99.90
20815;DHT22;10568;48.176;16.316;2022-09-20T16:09:05;10.50;99.90
20815;DHT22;10568;48.176;16.316;2022-09-20T16:11:32;10.50;99.90
20815;DHT22;10568;48.176;16.316;2022-09-20T16:13:58;10.40;99.90
20815;DHT22;10568;48.176;16.316;2022-09-20T16:16:26;10.40;99.90
20815;DHT22;10568;48.176;16.316;2022-09-20T16:18:52;10.40;99.90
20815;DHT22;10568;48.176;16.316;2022-09-20T16:21:38;10.30;99.90
20815;DHT22;10568;48.176;16.316;2022-09-20T16:24:05;10.20;99.90
20815;DHT22;10568;48.176;16.316;2022-09-20T16:26:31;10.10;99.90
20815;DHT22;10568;48.176;16.316;2022-09-20T16:28:59;10.10;99.90
20815;DHT22;10568;48.176;16.316;2022-09-20T16:34:14;10.10;99.90
20815;DHT22;10568;48.176;16.316;2022-09-20T16:36:44;10.10;99.90
20815;DHT22;10568;48.176;16.316;2022-09-20T16:39:11;10.00;99.90
20815;DHT22;10568;48.176;16.316;2022-09-20T16:41:37;10.00;99.90
20815;DHT22;10568;48.176;16.316;2022-09-20T16:44:06;10.00;99.90
20815;DHT22;10568;48.176;16.316;2022-09-20T16:46:32;10.00;99.90
20815;DHT22;10568;48.176;16.316;2022-09-20T16:49:05;9.90;99.90
20815;DHT22;10568;48.176;16.316;2022-09-20T16:51:33;9.90;99.90
20815;DHT22;10568;48.176;16.316;2022-09-20T16:54:04;9.80;99.90
20815;DHT22;10568;48.176;16.316;2022-09-20T16:56:32;9.80;99.90
20815;DHT22;10568;48.176;16.316;2022-09-20T16:59:00;9.80;99.90
20815;DHT22;10568;48.176;16.316;2022-09-20T17:01:26;9.80;99.90
20815;DHT22;10568;48.176;16.316;2022-09-20T17:03:53;9.80;99.90
20815;DHT22;10568;48.176;16.316;2022-09-20T17:06:32;9.70;99.90
20815;DHT22;10568;48.176;16.316;2022-09-20T17:08:58;9.70;99.90
20815;DHT22;10568;48.176;16.316;2022-09-20T17:11:27;9.70;99.90
20815;DHT22;10568;48.176;16.316;2022-09-20T17:13:53;9.60;99.90
20815;DHT22;10568;48.176;16.316;2022-09-20T17:16:24;9.60;99.90
20815;DHT22;10568;48.176;16.316;2022-09-20T17:18:58;9.50;99.90
20815;DHT22;10568;48.176;16.316;2022-09-20T17:21:25;9.50;99.90
20815;DHT22;10568;48.176;16.316;2022-09-20T17:23:52;9.50;99.90
20815;DHT22;10568;48.176;16.316;2022-09-20T17:26:24;9.40;99.90
20815;DHT22;10568;48.176;16.316;2022-09-20T17:29:28;9.40;99.90
20815;DHT22;10568;48.176;16.316;2022-09-20T17:31:53;9.40;99.90
20815;DHT22;10568;48.176;16.316;2022-09-20T17:34:24;9.30;99.90
20815;DHT22;10568;48.176;16.316;2022-09-20T17:36:51;9.30;99.90
20815;DHT22;10568;48.176;16.316;2022-09-20T17:39:18;9.30;99.90
20815;DHT22;10568;48.176;16.316;2022-09-20T17:41:46;9.30;99.90
20815;DHT22;10568;48.176;16.316;2022-09-20T17:44:12;9.30;99.90
20815;DHT22;10568;48.176;16.316;2022-09-20T17:46:43;9.30;99.90
20815;DHT22;10568;48.176;16.316;2022-09-20T17:49:13;9.30;99.90
20815;DHT22;10568;48.176;16.316;2022-09-20T17:51:50;9.30;99.90
20815;DHT22;10568;48.176;16.316;2022-09-20T17:54:17;9.20;99.90
20815;DHT22;10568;48.176;16.316;2022-09-20T17:56:48;9.20;99.90
20815;DHT22;10568;48.176;16.316;2022-09-20T17:59:16;9.20;99.90
20815;DHT22;10568;48.176;16.316;2022-09-20T18:01:43;9.20;99.90
20815;DHT22;10568;48.176;16.316;2022-09-20T18:04:09;9.20;99.90
20815;DHT22;10568;48.176;16.316;2022-09-20T18:06:40;9.10;99.90
20815;DHT22;10568;48.176;16.316;2022-09-20T18:09:12;9.10;99.90
20815;DHT22;10568;48.176;16.316;2022-09-20T18:11:43;9.10;99.90
20815;DHT22;10568;48.176;16.316;2022-09-20T18:14:14;9.10;99.90
20815;DHT22;10568;48.176;16.316;2022-09-20T18:16:40;9.00;99.90
20815;DHT22;10568;48.176;16.316;2022-09-20T18:19:09;9.00;99.90
20815;DHT22;10568;48.176;16.316;2022-09-20T18:21:36;9.00;99.90
20815;DHT22;10568;48.176;16.316;2022-09-20T18:24:06;9.00;99.90
20815;DHT22;10568;48.176;16.316;2022-09-20T18:26:33;9.00;99.90
20815;DHT22;10568;48.176;16.316;2022-09-20T18:31:52;9.00;99.90
20815;DHT22;10568;48.176;16.316;2022-09-20T18:34:24;8.90;99.90
20815;DHT22;10568;48.176;16.316;2022-09-20T18:36:55;8.90;99.90
20815;DHT22;10568;48.176;16.316;2022-09-20T18:39:22;8.90;99.90
20815;DHT22;10568;48.176;16.316;2022-09-20T18:41:47;8.90;99.90
20815;DHT22;10568;48.176;16.316;2022-09-20T18:44:15;8.90;99.90
20815;DHT22;10568;48.176;16.316;2022-09-20T18:46:43;8.90;99.90
20815;DHT22;10568;48.176;16.316;2022-09-20T18:49:10;8.90;99.90
20815;DHT22;10568;48.176;16.316;2022-09-20T18:51:39;8.90;99.90
20815;DHT22;10568;48.176;16.316;2022-09-20T18:54:05;8.90;99.90
20815;DHT22;10568;48.176;16.316;2022-09-20T18:56:33;8.90;99.90
20815;DHT22;10568;48.176;16.316;2022-09-20T18:59:01;8.90;99.90
20815;DHT22;10568;48.176;16.316;2022-09-20T19:12:36;8.90;99.90
20815;DHT22;10568;48.176;16.316;2022-09-20T19:21:22;9.00;99.90
20815;DHT22;10568;48.176;16.316;2022-09-20T19:26:38;9.00;99.90
20815;DHT22;10568;48.176;16.316;2022-09-20T19:29:19;9.00;99.90
20815;DHT22;10568;48.176;16.316;2022-09-20T19:31:47;9.00;99.90
20815;DHT22;10568;48.176;16.316;2022-09-20T19:34:22;9.10;99.90
20815;DHT22;10568;48.176;16.316;2022-09-20T19:42:34;9.00;99.90
20815;DHT22;10568;48.176;16.316;2022-09-20T19:50:42;8.90;99.90
20815;DHT22;10568;48.176;16.316;2022-09-20T19:53:16;8.90;99.90
20815;DHT22;10568;48.176;16.316;2022-09-20T19:55:46;8.80;99.90
20815;DHT22;10568;48.176;16.316;2022-09-20T19:58:13;8.80;99.90
20815;DHT22;10568;48.176;16.316;2022-09-20T20:00:41;8.80;99.90
20815;DHT22;10568;48.176;16.316;2022-09-20T20:03:12;8.70;99.90
20815;DHT22;10568;48.176;16.316;2022-09-20T20:05:45;8.70;99.90
20815;DHT22;10568;48.176;16.316;2022-09-20T20:08:21;8.70;99.90
20815;DHT22;10568;48.176;16.316;2022-09-20T20:13:54;8.60;99.90
20815;DHT22;10568;48.176;16.316;2022-09-20T20:24:51;8.50;99.90
20815;DHT22;10568;48.176;16.316;2022-09-20T20:27:18;8.50;99.90
20815;DHT22;10568;48.176;16.316;2022-09-20T20:29:45;8.50;99.90
20815;DHT22;10568;48.176;16.316;2022-09-20T20:32:11;8.50;99.90
20815;DHT22;10568;48.176;16.316;2022-09-20T20:34:37;8.50;99.90
20815;DHT22;10568;48.176;16.316;2022-09-20T20:37:03;8.40;99.90
20815;DHT22;10568;48.176;16.316;2022-09-20T20:39:30;8.40;99.90
20815;DHT22;10568;48.176;16.316;2022-09-20T20:41:57;8.40;99.90
20815;DHT22;10568;48.176;16.316;2022-09-20T20:44:29;8.40;99.90
20815;DHT22;10568;48.176;16.316;2022-09-20T20:46:55;8.40;99.90
20815;DHT22;10568;48.176;16.316;2022-09-20T20:49:20;8.30;99.90
20815;DHT22;10568;48.176;16.316;2022-09-20T20:51:46;8.30;99.90
20815;DHT22;10568;48.176;16.316;2022-09-20T20:54:13;8.30;99.90
20815;DHT22;10568;48.176;16.316;2022-09-20T20:56:38;8.30;99.90
20815;DHT22;10568;48.176;16.316;2022-09-20T20:59:04;8.30;99.90
20815;DHT22;10568;48.176;16.316;2022-09-20T21:01:35;8.30;99.90
20815;DHT22;10568;48.176;16.316;2022-09-20T21:04:02;8.30;99.90
20815;DHT22;10568;48.176;16.316;2022-09-20T21:06:33;8.30;99.90
20815;DHT22;10568;48.176;16.316;2022-09-20T21:09:00;8.30;99.90
20815;DHT22;10568;48.176;16.316;2022-09-20T21:11:28;8.30;99.90
20815;DHT22;10568;48.176;16.316;2022-09-20T21:13:57;8.30;99.90
20815;DHT22;10568;48.176;16.316;2022-09-20T21:16:25;8.30;99.90
20815;DHT22;10568;48.176;16.316;2022-09-20T21:18:51;8.30;99.90
20815;DHT22;10568;48.176;16.316;2022-09-20T21:21:21;8.30;99.90
20815;DHT22;10568;48.176;16.316;2022-09-20T21:23:52;8.20;99.90
20815;DHT22;10568;48.176;16.316;2022-09-20T21:26:19;8.30;99.90
20815;DHT22;10568;48.176;16.316;2022-09-20T21:28:50;8.30;99.90
20815;DHT22;10568;48.176;16.316;2022-09-20T21:31:18;8.30;99.90
20815;DHT22;10568;48.176;16.316;2022-09-20T21:33:44;8.30;99.90
20815;DHT22;10568;48.176;16.316;2022-09-20T21:36:14;8.30;99.90
20815;DHT22;10568;48.176;16.316;2022-09-20T21:38:42;8.30;99.90
20815;DHT22;10568;48.176;16.316;2022-09-20T21:41:16;8.30;99.90
20815;DHT22;10568;48.176;16.316;2022-09-20T21:43:43;8.30;99.90
20815;DHT22;10568;48.176;16.316;2022-09-20T21:46:17;8.30;99.90
20815;DHT22;10568;48.176;16.316;2022-09-20T21:48:45;8.30;99.90
20815;DHT22;10568;48.176;16.316;2022-09-20T21:51:13;8.30;99.90
20815;DHT22;10568;48.176;16.316;2022-09-20T21:53:40;8.30;99.90
20815;DHT22;10568;48.176;16.316;2022-09-20T21:56:08;8.20;99.90
20815;DHT22;10568;48.176;16.316;2022-09-20T21:58:35;8.20;99.90
20815;DHT22;10568;48.176;16.316;2022-09-20T22:01:05;8.20;99.90
20815;DHT22;10568;48.176;16.316;2022-09-20T22:03:36;8.20;99.90
20815;DHT22;10568;48.176;16.316;2022-09-20T22:06:08;8.20;99.90